Time;durP1;ratioP1;P1;durP2;ratioP2;P2;SDS_P1;SDS_P2;PMS_P1;PMS_P2;Temp;Humidity;BMP_temperature;BMP_pressure;BME280_temperature;BME280_humidity;BME280_pressure;Samples;Min_cycle;Max_cycle;Signal;HPM_P1;HPM_P2
2021/05/22 00:00:46;;;;;;;;;;;10.40;46.60;;;;;;5014433;28;20277;-70
2021/05/22 00:03:11;;;;;;;;;;;10.50;45.30;;;;;;5013311;28;19929;-69
2021/05/22 00:05:37;;;;;;;;;;;10.60;46.00;;;;;;5012394;28;19956;-70
2021/05/22 00:08:02;;;;;;;;;;;10.70;43.90;;;;;;5012145;28;19905;-70
2021/05/22 00:10:28;;;;;;;;;;;10.60;44.10;;;;;;5012202;28;19999;-69
2021/05/22 00:12:53;;;;;;;;;;;10.70;43.60;;;;;;5011909;28;20354;-70
2021/05/22 00:15:19;;;;;;;;;;;10.70;43.10;;;;;;5012023;28;19905;-70
2021/05/22 00:17:45;;;;;;;;;;;10.60;42.90;;;;;;5012159;28;19987;-70
2021/05/22 00:20:12;;;;;;;;;;;10.60;43.00;;;;;;5011929;28;19997;-70
2021/05/22 00:22:39;;;;;;;;;;;10.70;43.00;;;;;;5012252;28;20354;-70
2021/05/22 00:25:04;;;;;;;;;;;10.70;42.50;;;;;;5011949;28;20329;-70
2021/05/22 00:27:30;;;;;;;;;;;10.80;41.10;;;;;;5012444;28;19905;-70
2021/05/22 00:29:55;;;;;;;;;;;10.80;40.90;;;;;;5012311;28;19917;-71
2021/05/22 00:32:21;;;;;;;;;;;10.80;40.80;;;;;;5012167;28;19910;-70
2021/05/22 00:34:47;;;;;;;;;;;10.80;41.20;;;;;;5012011;28;19967;-70
2021/05/22 00:37:12;;;;;;;;;;;10.70;41.60;;;;;;5012063;28;20331;-70
2021/05/22 00:39:38;;;;;;;;;;;10.70;41.50;;;;;;5011926;28;19913;-70
2021/05/22 00:42:04;;;;;;;;;;;10.80;41.00;;;;;;5029331;23;20451;-74
2021/05/22 00:44:33;;;;;;;;;;;10.80;40.10;;;;;;5016007;28;19913;-75
2021/05/22 00:47:00;;;;;;;;;;;10.80;39.90;;;;;;5034625;28;19909;-77
2021/05/22 00:49:26;;;;;;;;;;;10.80;40.30;;;;;;5033807;28;20427;-76
2021/05/22 00:51:51;;;;;;;;;;;10.70;40.70;;;;;;5034020;28;19905;-76
2021/05/22 00:54:17;;;;;;;;;;;10.80;39.90;;;;;;5032872;28;20424;-74
2021/05/22 00:56:43;;;;;;;;;;;10.80;39.60;;;;;;5033907;28;19905;-77
2021/05/22 00:59:12;;;;;;;;;;;10.70;39.90;;;;;;5033816;28;20352;-75
2021/05/22 01:01:38;;;;;;;;;;;10.60;40.40;;;;;;5033630;28;19905;-75
2021/05/22 01:04:03;;;;;;;;;;;10.60;41.80;;;;;;5032855;28;19916;-75
2021/05/22 01:06:30;;;;;;;;;;;10.50;41.90;;;;;;5032767;28;20281;-75
2021/05/22 01:09:18;;;;;;;;;;;10.40;42.80;;;;;;5032891;28;20374;-75
2021/05/22 01:11:48;;;;;;;;;;;10.30;43.10;;;;;;5033004;28;19912;-76
2021/05/22 01:14:13;;;;;;;;;;;10.30;42.90;;;;;;5032776;28;19905;-75
2021/05/22 01:16:40;;;;;;;;;;;10.30;43.50;;;;;;5015116;28;19912;-74
2021/05/22 01:19:06;;;;;;;;;;;10.30;43.70;;;;;;5032648;28;19905;-76
2021/05/22 01:21:32;;;;;;;;;;;10.20;44.60;;;;;;5035508;28;20107;-76
2021/05/22 01:24:01;;;;;;;;;;;10.20;45.40;;;;;;5035694;28;19914;-76
2021/05/22 01:26:27;;;;;;;;;;;10.10;46.60;;;;;;5035787;28;20051;-74
2021/05/22 01:28:54;;;;;;;;;;;10.20;46.70;;;;;;5039002;28;20362;-75
2021/05/22 01:31:20;;;;;;;;;;;10.10;47.00;;;;;;5042781;28;19960;-75
2021/05/22 01:33:46;;;;;;;;;;;10.00;47.80;;;;;;5039267;28;19940;-75
2021/05/22 01:36:11;;;;;;;;;;;10.00;48.50;;;;;;5042380;28;20282;-75
2021/05/22 01:38:37;;;;;;;;;;;10.00;48.20;;;;;;5032667;28;19920;-73
2021/05/22 01:41:02;;;;;;;;;;;9.90;48.30;;;;;;5020379;28;20054;-76
2021/05/22 01:43:28;;;;;;;;;;;10.00;48.00;;;;;;5036260;28;20274;-76
2021/05/22 01:45:54;;;;;;;;;;;9.90;48.00;;;;;;5018125;28;19912;-73
2021/05/22 01:48:22;;;;;;;;;;;10.10;47.60;;;;;;5035794;28;20234;-73
2021/05/22 01:50:49;;;;;;;;;;;10.00;47.30;;;;;;5035599;28;19912;-74
2021/05/22 01:53:15;;;;;;;;;;;10.00;47.90;;;;;;5017779;28;20012;-75
2021/05/22 01:55:41;;;;;;;;;;;9.90;48.00;;;;;;5036644;28;20273;-75
2021/05/22 01:58:09;;;;;;;;;;;10.00;47.30;;;;;;5036945;28;19933;-76
2021/05/22 02:00:34;;;;;;;;;;;10.00;47.50;;;;;;5036721;28;19909;-75
2021/05/22 02:03:11;;;;;;;;;;;10.10;47.10;;;;;;5036635;28;20397;-74
2021/05/22 02:05:37;;;;;;;;;;;10.00;46.70;;;;;;5038823;28;19909;-75
2021/05/22 02:08:05;;;;;;;;;;;10.00;46.70;;;;;;5022841;28;19927;-76
2021/05/22 02:10:31;;;;;;;;;;;10.00;46.20;;;;;;5023566;28;19912;-75
2021/05/22 02:12:57;;;;;;;;;;;10.10;45.90;;;;;;5039378;28;20219;-74
2021/05/22 02:15:27;;;;;;;;;;;10.10;45.40;;;;;;5037606;28;19905;-74
2021/05/22 02:17:53;;;;;;;;;;;10.10;45.60;;;;;;5037370;28;20342;-75
2021/05/22 02:20:19;;;;;;;;;;;10.10;45.70;;;;;;5037096;28;19917;-74
2021/05/22 02:22:45;;;;;;;;;;;9.90;46.60;;;;;;5037486;28;19911;-75
2021/05/22 02:25:12;;;;;;;;;;;10.00;46.20;;;;;;5037563;28;20358;-74
2021/05/22 02:27:37;;;;;;;;;;;10.10;45.40;;;;;;5037508;28;19909;-74
2021/05/22 02:30:14;;;;;;;;;;;10.10;44.90;;;;;;5037335;28;19928;-75
2021/05/22 02:32:41;;;;;;;;;;;10.10;45.10;;;;;;5018873;28;19940;-76
2021/05/22 02:35:08;;;;;;;;;;;10.20;44.80;;;;;;5037565;28;20296;-75
2021/05/22 02:37:35;;;;;;;;;;;10.30;44.60;;;;;;5037136;28;20110;-73
2021/05/22 02:40:05;;;;;;;;;;;10.40;44.50;;;;;;5036532;28;19928;-75
2021/05/22 02:42:32;;;;;;;;;;;10.40;44.90;;;;;;5035764;28;19913;-74
2021/05/22 02:44:58;;;;;;;;;;;10.40;44.20;;;;;;5035580;28;19911;-74
2021/05/22 02:47:25;;;;;;;;;;;10.50;43.70;;;;;;5018157;28;19905;-74
2021/05/22 02:49:51;;;;;;;;;;;10.60;43.30;;;;;;5035480;28;19996;-74
2021/05/22 02:52:17;;;;;;;;;;;10.70;43.20;;;;;;5034794;28;20416;-73
2021/05/22 02:54:45;;;;;;;;;;;10.80;41.80;;;;;;5017180;28;19912;-75
2021/05/22 02:57:11;;;;;;;;;;;10.80;41.20;;;;;;5035091;28;19905;-75
2021/05/22 02:59:37;;;;;;;;;;;10.90;41.00;;;;;;5034575;28;19905;-74
2021/05/22 03:02:03;;;;;;;;;;;10.90;40.90;;;;;;5035158;28;19931;-75
2021/05/22 03:04:32;;;;;;;;;;;10.90;40.30;;;;;;5034982;28;19928;-75
2021/05/22 03:07:01;;;;;;;;;;;10.90;39.80;;;;;;5035059;28;20337;-73
2021/05/22 03:09:27;;;;;;;;;;;10.90;40.20;;;;;;5034930;28;20362;-73
2021/05/22 03:11:53;;;;;;;;;;;10.90;39.80;;;;;;5034966;28;19905;-78
2021/05/22 03:14:18;;;;;;;;;;;10.80;39.70;;;;;;5034929;28;19912;-75
2021/05/22 03:16:44;;;;;;;;;;;10.90;40.20;;;;;;5035020;28;20358;-73
2021/05/22 03:19:09;;;;;;;;;;;10.80;39.20;;;;;;5017102;28;19909;-74
2021/05/22 03:21:35;;;;;;;;;;;10.70;39.90;;;;;;5034365;28;19905;-76
2021/05/22 03:24:00;;;;;;;;;;;10.70;40.40;;;;;;5016895;28;19905;-75
2021/05/22 03:26:27;;;;;;;;;;;10.70;40.20;;;;;;5034594;28;19932;-75
2021/05/22 03:28:52;;;;;;;;;;;10.60;40.40;;;;;;5034845;28;19912;-76
2021/05/22 03:31:18;;;;;;;;;;;10.70;40.10;;;;;;5035126;28;19905;-76
2021/05/22 03:33:43;;;;;;;;;;;10.60;40.90;;;;;;5035311;28;19956;-74
2021/05/22 03:36:09;;;;;;;;;;;10.50;40.80;;;;;;5035119;28;19909;-74
2021/05/22 03:38:34;;;;;;;;;;;10.60;41.90;;;;;;5035171;28;19912;-74
2021/05/22 03:41:00;;;;;;;;;;;10.70;41.10;;;;;;5034523;28;19904;-75
2021/05/22 03:43:25;;;;;;;;;;;10.70;41.10;;;;;;5035805;28;19913;-75
2021/05/22 03:45:51;;;;;;;;;;;10.80;40.30;;;;;;5023475;28;20416;-75
2021/05/22 03:48:16;;;;;;;;;;;10.90;39.40;;;;;;5042070;28;19916;-73
2021/05/22 03:50:42;;;;;;;;;;;11.00;39.50;;;;;;5023161;28;19905;-74
2021/05/22 03:53:08;;;;;;;;;;;11.10;38.80;;;;;;5038890;28;20290;-75
2021/05/22 03:55:34;;;;;;;;;;;11.10;39.10;;;;;;5034020;28;20336;-74
2021/05/22 03:58:00;;;;;;;;;;;11.10;38.40;;;;;;5033842;28;19905;-77
2021/05/22 04:00:25;;;;;;;;;;;11.10;38.20;;;;;;5015888;28;19905;-73
2021/05/22 04:02:51;;;;;;;;;;;11.20;38.60;;;;;;5033291;28;19905;-74
2021/05/22 04:05:16;;;;;;;;;;;11.30;37.90;;;;;;5033263;28;19909;-75
2021/05/22 04:07:42;;;;;;;;;;;11.20;38.00;;;;;;5015838;28;19905;-74
2021/05/22 04:10:08;;;;;;;;;;;11.30;38.70;;;;;;5033175;28;19972;-73
2021/05/22 04:12:33;;;;;;;;;;;11.30;37.90;;;;;;5033111;28;19916;-73
2021/05/22 04:14:58;;;;;;;;;;;11.40;37.50;;;;;;5032901;28;19905;-74
2021/05/22 04:17:24;;;;;;;;;;;11.40;37.70;;;;;;5033120;28;19905;-75
2021/05/22 04:19:49;;;;;;;;;;;11.40;38.80;;;;;;5033478;28;19905;-75
2021/05/22 04:22:15;;;;;;;;;;;11.40;39.40;;;;;;5033724;28;19905;-75
2021/05/22 04:24:40;;;;;;;;;;;11.40;38.90;;;;;;5034849;28;19998;-74
2021/05/22 04:27:06;;;;;;;;;;;11.60;39.60;;;;;;5034220;28;20353;-73
2021/05/22 04:29:31;;;;;;;;;;;11.60;38.60;;;;;;5038076;28;19952;-75
2021/05/22 04:31:57;;;;;;;;;;;11.70;38.40;;;;;;5043132;28;20259;-75
2021/05/22 04:34:23;;;;;;;;;;;11.80;37.30;;;;;;5044649;28;19982;-76
2021/05/22 04:36:48;;;;;;;;;;;11.90;36.80;;;;;;5039046;28;19940;-75
2021/05/22 04:39:14;;;;;;;;;;;12.00;36.20;;;;;;5019204;28;19909;-75
2021/05/22 04:41:39;;;;;;;;;;;12.00;35.60;;;;;;5040248;28;19944;-74
2021/05/22 04:44:05;;;;;;;;;;;12.10;34.90;;;;;;5020638;28;19919;-76
2021/05/22 04:46:30;;;;;;;;;;;12.20;34.60;;;;;;5036632;28;19916;-76
2021/05/22 04:48:56;;;;;;;;;;;12.20;34.30;;;;;;5035504;28;19912;-73
2021/05/22 04:51:23;;;;;;;;;;;12.20;33.90;;;;;;5034235;28;20413;-75
2021/05/22 04:53:48;;;;;;;;;;;12.20;33.70;;;;;;5033105;28;19905;-75
2021/05/22 04:56:14;;;;;;;;;;;12.20;33.60;;;;;;5035812;28;19911;-74
2021/05/22 04:58:39;;;;;;;;;;;12.30;33.80;;;;;;5037088;28;19929;-75
2021/05/22 05:01:05;;;;;;;;;;;12.40;33.70;;;;;;5036981;28;19905;-76
2021/05/22 05:03:30;;;;;;;;;;;12.40;33.30;;;;;;5036351;28;20012;-74
2021/05/22 05:05:56;;;;;;;;;;;12.50;33.10;;;;;;5036616;28;19943;-75
2021/05/22 05:08:21;;;;;;;;;;;12.50;33.00;;;;;;5036960;28;19923;-75
2021/05/22 05:10:47;;;;;;;;;;;12.40;33.10;;;;;;5019164;28;19972;-75
2021/05/22 05:13:16;;;;;;;;;;;12.50;33.50;;;;;;5035968;28;20149;-75
2021/05/22 05:15:42;;;;;;;;;;;12.50;33.10;;;;;;5036279;28;19905;-74
2021/05/22 05:18:07;;;;;;;;;;;12.60;32.90;;;;;;5035663;28;19912;-75
2021/05/22 05:20:33;;;;;;;;;;;12.60;32.20;;;;;;5018662;28;19928;-72
2021/05/22 05:22:59;;;;;;;;;;;12.70;31.90;;;;;;5035604;28;19943;-73
2021/05/22 05:25:24;;;;;;;;;;;12.70;32.00;;;;;;5017873;28;19916;-75
2021/05/22 05:27:50;;;;;;;;;;;12.70;32.30;;;;;;5037335;28;19944;-74
2021/05/22 05:30:16;;;;;;;;;;;12.80;31.60;;;;;;5038294;28;19909;-76
2021/05/22 05:32:41;;;;;;;;;;;12.90;31.10;;;;;;5040914;28;19905;-74
2021/05/22 05:35:09;;;;;;;;;;;13.00;30.50;;;;;;5041330;28;20278;-75
2021/05/22 05:37:35;;;;;;;;;;;13.10;30.10;;;;;;5042289;28;20231;-75
2021/05/22 05:40:01;;;;;;;;;;;13.10;30.50;;;;;;5041059;28;19920;-75
2021/05/22 05:42:26;;;;;;;;;;;13.10;30.10;;;;;;5035565;28;19920;-74
2021/05/22 05:44:51;;;;;;;;;;;13.10;30.40;;;;;;5017867;28;19904;-73
2021/05/22 05:47:17;;;;;;;;;;;13.00;30.50;;;;;;5036531;28;19915;-73
2021/05/22 05:49:42;;;;;;;;;;;13.00;30.30;;;;;;5036617;28;19948;-76
2021/05/22 05:52:09;;;;;;;;;;;13.10;30.40;;;;;;5018589;28;19905;-75
2021/05/22 05:54:34;;;;;;;;;;;13.10;30.30;;;;;;5036394;28;19924;-76
2021/05/22 05:57:00;;;;;;;;;;;13.10;30.40;;;;;;5035957;28;19931;-73
2021/05/22 05:59:25;;;;;;;;;;;13.20;30.20;;;;;;5036189;28;19909;-74
2021/05/22 06:01:51;;;;;;;;;;;13.10;30.20;;;;;;5035755;28;20305;-75
2021/05/22 06:04:16;;;;;;;;;;;13.20;30.30;;;;;;5035521;28;19996;-75
2021/05/22 06:06:42;;;;;;;;;;;13.10;30.10;;;;;;5035476;28;19992;-74
2021/05/22 06:09:07;;;;;;;;;;;13.10;30.60;;;;;;5035628;28;19905;-74
2021/05/22 06:11:35;;;;;;;;;;;13.10;30.30;;;;;;5035348;28;19909;-75
2021/05/22 06:14:01;;;;;;;;;;;13.00;30.90;;;;;;5035056;28;19919;-74
2021/05/22 06:16:36;;;;;;;;;;;13.10;30.80;;;;;;5035446;28;19905;-74
2021/05/22 06:19:01;;;;;;;;;;;13.10;30.60;;;;;;5017536;28;19908;-75
2021/05/22 06:21:27;;;;;;;;;;;13.10;30.20;;;;;;5017904;28;19935;-77
2021/05/22 06:23:52;;;;;;;;;;;13.10;30.70;;;;;;5017900;28;19909;-76
2021/05/22 06:26:18;;;;;;;;;;;13.00;30.80;;;;;;5036605;28;19909;-77
2021/05/22 06:28:43;;;;;;;;;;;12.90;32.00;;;;;;5035507;28;20016;-74
2021/05/22 06:31:09;;;;;;;;;;;12.80;32.40;;;;;;5035984;28;19915;-76
2021/05/22 06:33:35;;;;;;;;;;;12.80;33.60;;;;;;5035870;28;19905;-76
2021/05/22 06:36:00;;;;;;;;;;;12.80;35.10;;;;;;5035349;28;19988;-75
2021/05/22 06:38:26;;;;;;;;;;;12.70;35.70;;;;;;5035593;28;19909;-76
2021/05/22 06:40:52;;;;;;;;;;;12.70;36.20;;;;;;5017561;28;19905;-74
2021/05/22 06:43:17;;;;;;;;;;;12.70;36.20;;;;;;5056493;22;19925;-70
2021/05/22 06:45:55;;;;;;;;;;;12.80;34.80;;;;;;5033727;28;19913;-70
2021/05/22 06:48:21;;;;;;;;;;;12.80;34.50;;;;;;5034246;28;19912;-70
2021/05/22 06:50:46;;;;;;;;;;;12.90;34.70;;;;;;5034164;28;19905;-69
2021/05/22 06:53:12;;;;;;;;;;;13.00;34.40;;;;;;5033554;28;19988;-69
2021/05/22 06:55:37;;;;;;;;;;;13.10;33.20;;;;;;5034098;28;19928;-69
2021/05/22 06:58:05;;;;;;;;;;;13.10;33.00;;;;;;5034174;28;19909;-69
2021/05/22 07:00:31;;;;;;;;;;;13.10;32.90;;;;;;5034213;28;19915;-69
2021/05/22 07:02:56;;;;;;;;;;;13.10;33.00;;;;;;5033795;28;20645;-70
2021/05/22 07:05:22;;;;;;;;;;;13.10;33.40;;;;;;5034191;28;19966;-69
2021/05/22 07:07:47;;;;;;;;;;;13.10;33.50;;;;;;5033403;28;19937;-68
2021/05/22 07:10:13;;;;;;;;;;;13.10;33.30;;;;;;5033116;28;19948;-69
2021/05/22 07:12:39;;;;;;;;;;;13.10;33.80;;;;;;5032485;28;20005;-68
2021/05/22 07:15:06;;;;;;;;;;;13.10;33.30;;;;;;5033141;28;19908;-69
2021/05/22 07:17:31;;;;;;;;;;;13.10;32.60;;;;;;5032595;28;20281;-70
2021/05/22 07:19:57;;;;;;;;;;;13.10;32.30;;;;;;5033158;28;19911;-69
2021/05/22 07:22:22;;;;;;;;;;;13.20;32.20;;;;;;5033098;28;19988;-69
2021/05/22 07:24:48;;;;;;;;;;;13.30;32.40;;;;;;5032893;28;20270;-69
2021/05/22 07:27:15;;;;;;;;;;;13.20;32.50;;;;;;5033072;28;19923;-70
2021/05/22 07:29:40;;;;;;;;;;;13.20;31.70;;;;;;5033036;28;19905;-70
2021/05/22 07:32:06;;;;;;;;;;;13.20;31.80;;;;;;5032918;28;20038;-69
2021/05/22 07:34:31;;;;;;;;;;;13.10;32.20;;;;;;5032551;28;19912;-71
2021/05/22 07:36:57;;;;;;;;;;;13.10;32.50;;;;;;5033382;28;19944;-70
2021/05/22 07:39:22;;;;;;;;;;;13.00;32.70;;;;;;5032950;28;19912;-69
2021/05/22 07:41:48;;;;;;;;;;;13.00;32.70;;;;;;5032856;28;20346;-69
2021/05/22 07:44:14;;;;;;;;;;;13.10;32.80;;;;;;5032442;28;19917;-69
2021/05/22 07:46:39;;;;;;;;;;;13.20;33.20;;;;;;5032551;28;19909;-69
2021/05/22 07:49:05;;;;;;;;;;;13.20;34.90;;;;;;5033206;28;19976;-70
2021/05/22 07:51:31;;;;;;;;;;;13.00;36.00;;;;;;5032794;28;20354;-68
2021/05/22 07:53:56;;;;;;;;;;;12.90;36.50;;;;;;5032433;28;19905;-69
2021/05/22 07:56:22;;;;;;;;;;;12.70;37.10;;;;;;5032852;28;19912;-70
2021/05/22 07:58:47;;;;;;;;;;;12.70;37.60;;;;;;5032930;28;19912;-70
2021/05/22 08:01:13;;;;;;;;;;;12.70;37.10;;;;;;5033164;28;19978;-69
2021/05/22 08:03:38;;;;;;;;;;;12.70;37.20;;;;;;5032929;28;20281;-69
2021/05/22 08:06:04;;;;;;;;;;;12.80;37.40;;;;;;5032213;28;20008;-68
2021/05/22 08:08:29;;;;;;;;;;;12.90;36.50;;;;;;5032451;28;19916;-69
2021/05/22 08:10:55;;;;;;;;;;;13.10;36.10;;;;;;5032282;28;20358;-69
2021/05/22 08:13:20;;;;;;;;;;;13.40;34.60;;;;;;5032026;28;20051;-70
2021/05/22 08:15:46;;;;;;;;;;;13.60;33.30;;;;;;5032273;28;20003;-70
2021/05/22 08:18:11;;;;;;;;;;;13.60;33.20;;;;;;5032302;28;20338;-70
2021/05/22 08:20:38;;;;;;;;;;;13.70;33.30;;;;;;5032274;28;19912;-70
2021/05/22 08:23:04;;;;;;;;;;;13.60;33.60;;;;;;5032175;28;19915;-69
2021/05/22 08:25:29;;;;;;;;;;;13.60;34.10;;;;;;5032135;28;19908;-69
2021/05/22 08:27:55;;;;;;;;;;;13.60;34.20;;;;;;5031822;28;19905;-70
2021/05/22 08:30:21;;;;;;;;;;;13.60;33.80;;;;;;5033474;28;19909;-69
2021/05/22 08:32:47;;;;;;;;;;;13.40;33.90;;;;;;5035906;28;20004;-70
2021/05/22 08:35:13;;;;;;;;;;;13.20;34.30;;;;;;5036377;28;19909;-69
2021/05/22 08:37:40;;;;;;;;;;;13.10;35.00;;;;;;5036123;28;20030;-70
2021/05/22 08:40:06;;;;;;;;;;;13.00;34.90;;;;;;5036131;28;19952;-70
2021/05/22 08:42:32;;;;;;;;;;;12.90;35.30;;;;;;5035875;28;19913;-69
2021/05/22 08:45:13;;;;;;;;;;;12.90;35.50;;;;;;5036575;28;19987;-68
2021/05/22 08:47:39;;;;;;;;;;;13.00;35.70;;;;;;5037035;28;19909;-70
2021/05/22 08:50:06;;;;;;;;;;;13.00;36.00;;;;;;5036030;28;20266;-71
2021/05/22 08:52:32;;;;;;;;;;;13.00;36.00;;;;;;5036204;28;19905;-68
2021/05/22 08:54:58;;;;;;;;;;;13.00;36.40;;;;;;5036531;28;19981;-69
2021/05/22 08:57:23;;;;;;;;;;;13.00;36.60;;;;;;5019431;28;19905;-69
2021/05/22 08:59:49;;;;;;;;;;;12.90;36.40;;;;;;5004786;28;20269;-70
2021/05/22 09:02:17;;;;;;;;;;;12.90;36.00;;;;;;5035830;28;19905;-69
2021/05/22 09:05:02;;;;;;;;;;;12.90;35.70;;;;;;5035679;28;19912;-70
2021/05/22 09:07:29;;;;;;;;;;;13.00;35.70;;;;;;5035644;28;19909;-69
2021/05/22 09:09:54;;;;;;;;;;;12.90;36.30;;;;;;5035397;28;19905;-69
2021/05/22 09:12:20;;;;;;;;;;;12.90;35.70;;;;;;5035294;28;19960;-69
2021/05/22 09:14:51;;;;;;;;;;;12.90;35.80;;;;;;5035623;28;19975;-69
2021/05/22 09:17:16;;;;;;;;;;;12.90;34.70;;;;;;5035326;28;19905;-70
2021/05/22 09:19:42;;;;;;;;;;;12.90;34.50;;;;;;5035763;28;20281;-69
2021/05/22 09:22:26;;;;;;;;;;;12.80;34.70;;;;;;5035039;28;19909;-69
2021/05/22 09:24:55;;;;;;;;;;;12.80;35.70;;;;;;5035433;28;20004;-68
2021/05/22 09:27:20;;;;;;;;;;;12.90;35.40;;;;;;5035123;28;20412;-69
2021/05/22 09:29:46;;;;;;;;;;;13.00;34.90;;;;;;5035276;28;19905;-70
2021/05/22 09:32:15;;;;;;;;;;;13.10;34.10;;;;;;5034764;28;19905;-69
2021/05/22 09:34:40;;;;;;;;;;;13.10;33.70;;;;;;5034449;28;19905;-69
2021/05/22 09:37:10;;;;;;;;;;;13.10;34.60;;;;;;5034640;28;19912;-69
2021/05/22 09:39:44;;;;;;;;;;;13.20;33.60;;;;;;5035056;28;20364;-71
2021/05/22 09:42:09;;;;;;;;;;;13.40;33.10;;;;;;5034142;28;19958;-70
2021/05/22 09:44:35;;;;;;;;;;;13.60;32.30;;;;;;5034867;28;20335;-70
2021/05/22 09:47:04;;;;;;;;;;;13.80;31.90;;;;;;5034748;28;19913;-70
2021/05/22 09:49:32;;;;;;;;;;;13.90;32.00;;;;;;5034589;28;20413;-70
2021/05/22 09:51:58;;;;;;;;;;;13.90;32.20;;;;;;5034108;28;19912;-70
2021/05/22 09:54:42;;;;;;;;;;;13.80;32.30;;;;;;5034507;28;19905;-70
2021/05/22 09:57:08;;;;;;;;;;;13.80;33.70;;;;;;5034698;28;19927;-69
2021/05/22 09:59:34;;;;;;;;;;;13.80;34.50;;;;;;5034811;28;19912;-70
2021/05/22 10:02:00;;;;;;;;;;;13.80;34.10;;;;;;5034727;28;19905;-69
2021/05/22 10:04:25;;;;;;;;;;;13.70;35.00;;;;;;5034346;28;19956;-70
2021/05/22 10:06:52;;;;;;;;;;;13.80;35.00;;;;;;5034590;28;19916;-70
2021/05/22 10:09:18;;;;;;;;;;;13.70;36.10;;;;;;5034249;28;19905;-69
2021/05/22 10:12:02;;;;;;;;;;;13.70;36.70;;;;;;5016651;28;19967;-69
2021/05/22 10:14:32;;;;;;;;;;;13.70;35.70;;;;;;5034227;28;19909;-69
2021/05/22 10:16:58;;;;;;;;;;;13.60;35.20;;;;;;5034233;28;19905;-69
2021/05/22 10:19:25;;;;;;;;;;;13.60;37.60;;;;;;5034394;28;19909;-70
2021/05/22 10:21:51;;;;;;;;;;;13.60;36.10;;;;;;5034235;28;19911;-70
2021/05/22 10:24:17;;;;;;;;;;;13.60;36.70;;;;;;5033843;28;19999;-69
2021/05/22 10:26:44;;;;;;;;;;;13.50;37.50;;;;;;5034052;28;20284;-69
2021/05/22 10:29:09;;;;;;;;;;;13.50;37.10;;;;;;5033887;28;20266;-69
2021/05/22 10:31:38;;;;;;;;;;;13.50;37.30;;;;;;5034402;28;19905;-70
2021/05/22 10:34:11;;;;;;;;;;;13.40;37.00;;;;;;5015625;28;20004;-69
2021/05/22 10:36:53;;;;;;;;;;;13.50;37.80;;;;;;5034060;28;20003;-69
2021/05/22 10:39:31;;;;;;;;;;;13.40;37.00;;;;;;5033930;28;20289;-71
2021/05/22 10:41:56;;;;;;;;;;;13.40;38.50;;;;;;5034328;28;20297;-70
2021/05/22 10:44:33;;;;;;;;;;;13.20;38.60;;;;;;5033502;28;19920;-68
2021/05/22 10:47:02;;;;;;;;;;;13.20;38.50;;;;;;5033363;28;19909;-70
2021/05/22 10:49:46;;;;;;;;;;;13.20;38.30;;;;;;5033634;28;19909;-70
2021/05/22 10:52:16;;;;;;;;;;;13.20;38.70;;;;;;5033271;28;19932;-69
2021/05/22 10:54:55;;;;;;;;;;;13.20;39.00;;;;;;5032696;28;20009;-69
2021/05/22 10:57:21;;;;;;;;;;;13.20;39.00;;;;;;5033546;28;19905;-68
2021/05/22 11:00:06;;;;;;;;;;;13.20;38.30;;;;;;5033334;28;19959;-69
2021/05/22 11:02:33;;;;;;;;;;;13.30;38.70;;;;;;5033272;28;19905;-68
2021/05/22 11:05:19;;;;;;;;;;;13.40;38.30;;;;;;5032940;28;19992;-69
2021/05/22 11:07:44;;;;;;;;;;;13.40;37.30;;;;;;5033587;28;19916;-69
2021/05/22 11:10:10;;;;;;;;;;;13.50;38.60;;;;;;5033250;28;19999;-69
2021/05/22 11:12:38;;;;;;;;;;;13.50;38.40;;;;;;5015319;28;19996;-69
2021/05/22 11:15:04;;;;;;;;;;;13.70;38.30;;;;;;5032779;28;20472;-69
2021/05/22 11:17:29;;;;;;;;;;;13.70;38.20;;;;;;5032969;28;19909;-69
2021/05/22 11:20:05;;;;;;;;;;;13.80;38.50;;;;;;5014827;28;19905;-70
2021/05/22 11:22:32;;;;;;;;;;;13.80;37.50;;;;;;5032624;28;19909;-70
2021/05/22 11:25:03;;;;;;;;;;;13.80;37.20;;;;;;5032326;28;19905;-69
2021/05/22 11:27:44;;;;;;;;;;;13.90;36.60;;;;;;5032441;28;19924;-68
2021/05/22 11:30:11;;;;;;;;;;;14.00;37.20;;;;;;5032304;28;19905;-70
2021/05/22 11:32:45;;;;;;;;;;;14.20;37.50;;;;;;5031873;28;19940;-70
2021/05/22 11:35:26;;;;;;;;;;;14.30;36.90;;;;;;5032365;28;19905;-69
2021/05/22 11:37:55;;;;;;;;;;;14.30;36.30;;;;;;5032254;28;19905;-70
2021/05/22 11:40:39;;;;;;;;;;;14.20;36.40;;;;;;5032690;28;19904;-69
2021/05/22 11:45:44;;;;;;;;;;;14.00;37.10;;;;;;5033595;28;20007;-70
2021/05/22 11:48:28;;;;;;;;;;;13.90;38.50;;;;;;5031886;28;20157;-68
2021/05/22 11:50:56;;;;;;;;;;;13.90;37.80;;;;;;5032343;28;20239;-69
2021/05/22 11:53:22;;;;;;;;;;;14.00;37.90;;;;;;5031617;28;19905;-69
2021/05/22 11:56:01;;;;;;;;;;;14.00;38.80;;;;;;5032189;28;19955;-69
2021/05/22 11:58:27;;;;;;;;;;;14.00;38.10;;;;;;5033132;28;19933;-69
2021/05/22 12:00:53;;;;;;;;;;;13.90;38.80;;;;;;5032443;28;19952;-70
2021/05/22 12:03:26;;;;;;;;;;;14.10;37.50;;;;;;5032615;28;20358;-69
2021/05/22 12:05:52;;;;;;;;;;;14.20;37.20;;;;;;5031431;28;20410;-69
2021/05/22 12:08:23;;;;;;;;;;;14.40;36.30;;;;;;5031902;28;20264;-68
2021/05/22 12:10:49;;;;;;;;;;;14.30;36.30;;;;;;5031965;28;19958;-69
2021/05/22 12:13:14;;;;;;;;;;;14.10;37.90;;;;;;5031590;28;19910;-68
2021/05/22 12:15:42;;;;;;;;;;;14.10;39.10;;;;;;5031654;28;19905;-69
2021/05/22 12:18:08;;;;;;;;;;;14.10;39.40;;;;;;5032320;28;19959;-68
2021/05/22 12:20:50;;;;;;;;;;;14.00;39.10;;;;;;5032063;28;19909;-69
2021/05/22 12:23:23;;;;;;;;;;;14.00;40.00;;;;;;5031424;28;19917;-70
2021/05/22 12:25:49;;;;;;;;;;;14.00;39.80;;;;;;5031904;28;20031;-70
2021/05/22 12:28:14;;;;;;;;;;;14.10;39.50;;;;;;5031614;28;19909;-70
2021/05/22 12:30:40;;;;;;;;;;;14.10;39.40;;;;;;5013732;28;20284;-70
2021/05/22 12:33:09;;;;;;;;;;;14.10;40.30;;;;;;5031325;28;19928;-69
2021/05/22 12:35:35;;;;;;;;;;;14.00;41.00;;;;;;5031961;28;19916;-69
2021/05/22 12:38:00;;;;;;;;;;;13.90;42.20;;;;;;5031664;28;20332;-70
2021/05/22 12:40:27;;;;;;;;;;;13.80;44.20;;;;;;5031316;28;19974;-68
2021/05/22 12:42:52;;;;;;;;;;;13.80;43.20;;;;;;5031780;28;19916;-69
2021/05/22 12:45:18;;;;;;;;;;;13.60;44.00;;;;;;5031216;28;19909;-68
2021/05/22 12:47:45;;;;;;;;;;;13.50;45.00;;;;;;5031474;28;20001;-70
2021/05/22 12:50:12;;;;;;;;;;;13.50;44.90;;;;;;5031267;28;19905;-69
2021/05/22 12:52:48;;;;;;;;;;;13.50;44.40;;;;;;5031088;28;19945;-70
2021/05/22 12:55:20;;;;;;;;;;;13.50;45.00;;;;;;5013841;28;19971;-70
2021/05/22 12:57:47;;;;;;;;;;;13.40;44.60;;;;;;5031397;28;19905;-69
2021/05/22 13:00:14;;;;;;;;;;;13.50;44.90;;;;;;5031332;28;19928;-70
2021/05/22 13:03:06;;;;;;;;;;;13.40;45.40;;;;;;5031370;28;19999;-68
2021/05/22 13:05:33;;;;;;;;;;;13.50;46.20;;;;;;5029249;28;19909;-70
2021/05/22 13:07:59;;;;;;;;;;;13.50;46.20;;;;;;5031482;28;19974;-69
2021/05/22 13:10:28;;;;;;;;;;;13.60;44.50;;;;;;5031145;28;19957;-70
2021/05/22 13:12:54;;;;;;;;;;;13.70;43.70;;;;;;5030495;28;20326;-69
2021/05/22 13:15:20;;;;;;;;;;;13.70;42.70;;;;;;5031108;28;20000;-70
2021/05/22 13:17:56;;;;;;;;;;;13.70;41.50;;;;;;5034649;28;19948;-69
2021/05/22 13:20:21;;;;;;;;;;;13.70;41.90;;;;;;5034872;28;19916;-70
2021/05/22 13:22:47;;;;;;;;;;;13.70;40.60;;;;;;5034701;28;20177;-70
2021/05/22 13:25:15;;;;;;;;;;;13.70;41.20;;;;;;5034794;28;19913;-70
2021/05/22 13:28:00;;;;;;;;;;;13.70;40.40;;;;;;5034821;28;19916;-69
2021/05/22 13:30:26;;;;;;;;;;;13.80;41.60;;;;;;5035181;28;20385;-70
2021/05/22 13:32:52;;;;;;;;;;;14.00;39.20;;;;;;5034484;28;19978;-69
2021/05/22 13:35:25;;;;;;;;;;;14.10;39.50;;;;;;5034749;28;19989;-70
2021/05/22 13:37:51;;;;;;;;;;;14.00;38.60;;;;;;5034781;28;20063;-69
2021/05/22 13:40:17;;;;;;;;;;;13.90;40.40;;;;;;5034776;28;20013;-69
2021/05/22 13:42:42;;;;;;;;;;;13.80;39.60;;;;;;5034262;28;20006;-68
2021/05/22 13:45:08;;;;;;;;;;;13.70;40.90;;;;;;5034970;28;20249;-70
2021/05/22 13:47:36;;;;;;;;;;;13.60;40.60;;;;;;5034398;28;19971;-69
2021/05/22 13:50:03;;;;;;;;;;;13.50;40.50;;;;;;5034165;28;19905;-70
2021/05/22 13:52:29;;;;;;;;;;;13.60;40.30;;;;;;5034308;28;19905;-69
2021/05/22 13:54:54;;;;;;;;;;;13.70;40.70;;;;;;5034299;28;19912;-69
2021/05/22 13:57:20;;;;;;;;;;;13.70;41.50;;;;;;5034545;28;19958;-69
2021/05/22 13:59:45;;;;;;;;;;;13.80;41.30;;;;;;5034339;28;19963;-69
2021/05/22 14:02:11;;;;;;;;;;;13.90;39.90;;;;;;5034088;28;19906;-68
2021/05/22 14:04:36;;;;;;;;;;;13.90;40.10;;;;;;5034075;28;19944;-69
2021/05/22 14:07:01;;;;;;;;;;;13.90;41.00;;;;;;5033756;28;19916;-70
2021/05/22 14:09:27;;;;;;;;;;;14.00;41.10;;;;;;5033986;28;20247;-69
2021/05/22 14:11:53;;;;;;;;;;;14.10;39.70;;;;;;5033916;28;20059;-70
2021/05/22 14:14:19;;;;;;;;;;;14.10;38.50;;;;;;5033950;28;19905;-69
2021/05/22 14:16:44;;;;;;;;;;;14.20;38.90;;;;;;5033836;28;19912;-69
2021/05/22 14:19:10;;;;;;;;;;;14.30;38.40;;;;;;5034120;28;19905;-69